Terminal Aerodrome Forecast
Issued by NWS Bismarck, ND

Home | Current Version | Previous Version | Text Only | Print | Product List | Glossary On
Versions: 1 2 3 4 5 6 7 8 9 10 11 12
145
FTUS43 KBIS 301739
TAFBIS
TAF
KBIS 301739Z 3018/0118 VRB03KT P6SM SKC
     FM302000 09004KT P6SM FEW250
     FM011000 VRB03KT P6SM SCT250
     FM011600 33006KT P6SM BKN110=

USA.gov is the U.S. government's official web portal to all federal, state and local government web resources and services.